createdAt,value
2023-03-21T00:00:50.422Z,9.36
2023-03-21T00:03:18.208Z,9.31
2023-03-21T00:05:49.827Z,9.32
2023-03-21T00:08:18.227Z,9.30
2023-03-21T00:10:45.901Z,9.24
2023-03-21T00:13:16.302Z,9.23
2023-03-21T00:16:04.248Z,9.28
2023-03-21T00:18:41.696Z,9.15
2023-03-21T00:24:01.329Z,9.15
2023-03-21T00:26:29.045Z,9.16
2023-03-21T00:28:56.714Z,9.17
2023-03-21T00:31:25.742Z,9.22
2023-03-21T00:33:53.462Z,9.27
2023-03-21T00:36:21.584Z,9.16
2023-03-21T00:38:49.443Z,9.24
2023-03-21T00:41:26.318Z,9.25
2023-03-21T00:44:04.918Z,9.38
2023-03-21T00:46:45.206Z,9.37
2023-03-21T00:49:14.752Z,9.31
2023-03-21T00:51:43.513Z,9.32
2023-03-21T00:54:13.194Z,9.37
2023-03-21T00:56:40.880Z,9.42
2023-03-21T00:59:08.622Z,9.37
2023-03-21T01:01:37.589Z,9.37
2023-03-21T01:04:07.369Z,9.47
2023-03-21T01:06:39.911Z,9.55
2023-03-21T01:09:08.225Z,9.61
2023-03-21T01:11:36.194Z,9.53
2023-03-21T01:14:20.766Z,9.59
2023-03-21T01:16:50.925Z,9.59
2023-03-21T01:19:27.600Z,9.48
2023-03-21T01:21:57.497Z,9.56
2023-03-21T01:24:25.173Z,9.49
2023-03-21T01:26:52.971Z,9.58
2023-03-21T01:29:21.000Z,9.55
2023-03-21T01:31:48.785Z,9.55
2023-03-21T01:34:18.652Z,9.55
2023-03-21T01:36:46.433Z,9.61
2023-03-21T01:39:14.210Z,9.56
2023-03-21T01:41:44.566Z,9.60
2023-03-21T01:44:17.291Z,9.61
2023-03-21T01:47:00.069Z,9.51
2023-03-21T01:49:39.799Z,9.55
2023-03-21T01:52:18.979Z,9.52
2023-03-21T01:54:54.554Z,9.47
2023-03-21T01:57:43.529Z,9.41
2023-03-21T02:00:19.114Z,9.43
2023-03-21T02:02:52.531Z,9.54
2023-03-21T02:05:28.317Z,9.59
2023-03-21T02:07:56.107Z,9.56
2023-03-21T02:10:24.160Z,9.62
2023-03-21T02:12:54.890Z,9.69
2023-03-21T02:15:26.507Z,9.75
2023-03-21T02:17:59.853Z,9.73
2023-03-21T02:20:51.108Z,9.75
2023-03-21T02:23:41.723Z,9.76
2023-03-21T02:26:41.892Z,9.79
2023-03-21T02:29:29.402Z,9.79
2023-03-21T02:32:20.473Z,9.76
2023-03-21T02:35:12.021Z,9.72
2023-03-21T02:37:46.782Z,9.73
2023-03-21T02:40:27.016Z,9.76
2023-03-21T02:43:04.282Z,9.70
2023-03-21T02:45:40.254Z,9.78
2023-03-21T02:48:20.309Z,9.75
2023-03-21T02:50:57.111Z,9.55
2023-03-21T02:53:33.740Z,9.56
2023-03-21T02:56:02.914Z,9.50
2023-03-21T02:58:32.938Z,9.45
2023-03-21T03:01:00.791Z,9.47
2023-03-21T03:03:34.425Z,9.44
2023-03-21T03:06:06.347Z,9.46
2023-03-21T03:08:56.299Z,9.38
2023-03-21T03:11:32.344Z,9.35
2023-03-21T03:14:41.931Z,9.38
2023-03-21T03:17:28.365Z,9.41
2023-03-21T03:20:16.503Z,9.45
2023-03-21T03:22:56.241Z,9.56
2023-03-21T03:25:42.129Z,9.63
2023-03-21T03:28:12.235Z,9.60
2023-03-21T03:30:50.992Z,9.61
2023-03-21T03:33:26.664Z,9.65
2023-03-21T03:36:04.941Z,9.63
2023-03-21T03:38:37.570Z,9.64
2023-03-21T03:41:11.656Z,9.57
2023-03-21T03:43:44.632Z,9.55
2023-03-21T03:46:18.143Z,9.59
2023-03-21T03:48:51.372Z,9.61
2023-03-21T03:51:23.729Z,9.48
2023-03-21T03:53:55.950Z,9.46
2023-03-21T03:56:26.491Z,9.48
2023-03-21T03:58:54.410Z,9.47
2023-03-21T04:01:22.031Z,9.44
2023-03-21T04:03:54.612Z,9.43
2023-03-21T04:06:29.122Z,9.37
2023-03-21T04:08:58.902Z,9.33
2023-03-21T04:11:29.051Z,9.24
2023-03-21T04:13:56.687Z,9.33
2023-03-21T04:16:24.728Z,9.34
2023-03-21T04:18:52.462Z,9.44
2023-03-21T04:21:21.523Z,9.32
2023-03-21T04:23:49.152Z,9.34
2023-03-21T04:26:16.798Z,9.36
2023-03-21T04:28:45.879Z,9.36
2023-03-21T04:31:24.971Z,9.46
2023-03-21T04:33:53.071Z,9.49
2023-03-21T04:36:27.320Z,9.45
2023-03-21T04:38:57.080Z,9.48
2023-03-21T04:41:24.810Z,9.53
2023-03-21T04:43:54.369Z,9.61
2023-03-21T04:46:22.563Z,9.68
2023-03-21T04:48:50.647Z,9.72
2023-03-21T04:51:18.441Z,9.72
2023-03-21T04:53:49.624Z,9.75
2023-03-21T04:56:17.734Z,9.76
2023-03-21T04:58:47.906Z,9.64
2023-03-21T05:01:20.146Z,9.60
2023-03-21T05:03:48.220Z,9.58
2023-03-21T05:06:16.188Z,9.62
2023-03-21T05:08:43.931Z,9.71
2023-03-21T05:11:11.604Z,9.65
2023-03-21T05:13:39.318Z,9.58
2023-03-21T05:16:08.427Z,9.60
2023-03-21T05:18:38.641Z,9.70
2023-03-21T05:21:07.970Z,9.78
2023-03-21T05:23:42.015Z,9.81
2023-03-21T05:26:11.216Z,9.80
2023-03-21T05:28:39.941Z,9.86
2023-03-21T05:31:08.780Z,9.85
2023-03-21T05:33:38.004Z,9.84
2023-03-21T05:36:06.750Z,9.87
2023-03-21T05:38:34.483Z,9.89
2023-03-21T05:41:02.259Z,9.90
2023-03-21T05:43:30.041Z,9.89
2023-03-21T05:45:57.983Z,9.88
2023-03-21T05:48:26.020Z,9.84
2023-03-21T05:50:55.952Z,9.82
2023-03-21T05:53:23.703Z,9.75
2023-03-21T05:55:51.482Z,9.82
2023-03-21T05:58:19.526Z,9.90
2023-03-21T06:00:47.374Z,9.90
2023-03-21T06:03:15.271Z,9.89
2023-03-21T06:05:43.116Z,9.88
2023-03-21T06:08:12.906Z,9.91
2023-03-21T06:10:47.721Z,9.94
2023-03-21T06:13:15.819Z,9.87
2023-03-21T06:15:43.522Z,9.83
2023-03-21T06:18:11.217Z,9.80
2023-03-21T06:20:39.344Z,9.81
2023-03-21T06:23:07.033Z,9.88
2023-03-21T06:25:36.199Z,9.89
2023-03-21T06:28:03.966Z,9.83
2023-03-21T06:30:31.743Z,9.74
2023-03-21T06:32:59.379Z,9.69
2023-03-21T06:35:27.167Z,9.69
2023-03-21T06:37:54.896Z,9.74
2023-03-21T06:40:22.634Z,9.77
2023-03-21T06:42:51.686Z,9.85
2023-03-21T06:45:20.684Z,9.81
2023-03-21T06:47:48.451Z,9.86
2023-03-21T06:50:16.792Z,9.93
2023-03-21T06:52:44.571Z,9.96
2023-03-21T06:55:12.477Z,9.95
2023-03-21T06:57:40.175Z,9.98
2023-03-21T07:00:10.907Z,9.91
2023-03-21T07:02:38.694Z,9.98
2023-03-21T07:05:07.392Z,10.02
2023-03-21T07:07:35.237Z,9.88
2023-03-21T07:10:03.265Z,9.86
2023-03-21T07:12:34.007Z,9.95
2023-03-21T07:15:02.470Z,9.96
2023-03-21T07:17:31.537Z,9.98
2023-03-21T07:19:59.183Z,10.09
2023-03-21T07:22:27.872Z,10.16
2023-03-21T07:25:04.290Z,10.28
2023-03-21T07:27:32.899Z,10.28
2023-03-21T07:30:01.088Z,10.33
2023-03-21T07:32:29.867Z,10.38
2023-03-21T07:35:01.276Z,10.42
2023-03-21T07:37:29.334Z,10.46
2023-03-21T07:39:56.988Z,10.45
2023-03-21T07:42:24.620Z,10.46
2023-03-21T07:44:54.895Z,10.54
2023-03-21T07:47:22.525Z,10.57
2023-03-21T07:49:51.193Z,10.54
2023-03-21T07:52:20.259Z,10.52
2023-03-21T07:54:47.849Z,10.37
2023-03-21T07:57:15.526Z,10.38
2023-03-21T07:59:43.139Z,10.49
2023-03-21T08:02:11.969Z,10.55
2023-03-21T08:04:40.127Z,10.55
2023-03-21T08:07:07.784Z,10.54
2023-03-21T08:09:37.532Z,10.59
2023-03-21T08:12:08.139Z,10.61
2023-03-21T08:14:36.884Z,10.62
2023-03-21T08:17:09.320Z,10.74
2023-03-21T08:19:37.368Z,10.72
2023-03-21T08:22:06.664Z,10.62
2023-03-21T08:24:34.877Z,10.56
2023-03-21T08:27:03.821Z,10.59
2023-03-21T08:29:31.487Z,10.49
2023-03-21T08:31:59.168Z,10.44
2023-03-21T08:34:27.199Z,10.50
2023-03-21T08:36:54.895Z,10.56
2023-03-21T08:39:24.052Z,10.53
2023-03-21T08:41:51.744Z,10.44
2023-03-21T08:44:22.005Z,10.32
2023-03-21T08:46:49.683Z,10.29
2023-03-21T08:49:17.350Z,10.39
2023-03-21T08:51:45.603Z,10.45
2023-03-21T08:54:20.079Z,10.41
2023-03-21T08:56:47.942Z,10.45
2023-03-21T08:59:16.356Z,10.47
2023-03-21T09:01:45.518Z,10.48
2023-03-21T09:04:13.566Z,10.52
2023-03-21T09:06:48.056Z,10.46
2023-03-21T09:09:17.004Z,10.50
2023-03-21T09:11:44.721Z,10.61
2023-03-21T09:14:12.916Z,10.59
2023-03-21T09:16:41.228Z,10.60
2023-03-21T09:19:10.421Z,10.70
2023-03-21T09:21:38.671Z,10.79
2023-03-21T09:24:07.275Z,10.75
2023-03-21T09:26:37.845Z,10.74
2023-03-21T09:29:06.872Z,10.73
2023-03-21T09:31:34.723Z,10.69
2023-03-21T09:34:04.917Z,10.77
2023-03-21T09:36:36.113Z,10.86
2023-03-21T09:39:05.634Z,10.84
2023-03-21T09:41:51.986Z,10.92
2023-03-21T09:44:30.052Z,10.94
2023-03-21T09:47:06.825Z,10.87
2023-03-21T09:49:41.416Z,10.87
2023-03-21T09:52:20.278Z,10.92
2023-03-21T09:54:48.713Z,10.98
2023-03-21T09:57:27.168Z,11.03
2023-03-21T09:59:57.578Z,11.12
2023-03-21T10:02:37.700Z,11.07
2023-03-21T10:05:13.279Z,11.12
2023-03-21T10:07:47.633Z,11.06
2023-03-21T10:10:23.636Z,11.04
2023-03-21T10:12:55.081Z,11.07
2023-03-21T10:15:25.484Z,11.05
2023-03-21T10:17:58.331Z,11.11
2023-03-21T10:20:28.135Z,11.08
2023-03-21T10:22:59.660Z,11.10
2023-03-21T10:25:32.412Z,11.04
2023-03-21T10:28:01.459Z,10.97
2023-03-21T10:30:39.961Z,11.01
2023-03-21T10:33:12.670Z,11.04
2023-03-21T10:35:43.275Z,11.15
2023-03-21T10:38:18.253Z,11.24
2023-03-21T10:40:46.799Z,11.27
2023-03-21T10:43:21.711Z,11.26
2023-03-21T10:45:50.376Z,11.27
2023-03-21T10:48:18.365Z,11.29
2023-03-21T10:50:49.969Z,11.33
2023-03-21T10:53:25.436Z,11.28
2023-03-21T10:55:56.998Z,11.21
2023-03-21T10:58:29.132Z,11.25
2023-03-21T11:00:59.797Z,11.31
2023-03-21T11:03:32.165Z,11.32
2023-03-21T11:06:06.655Z,11.30
2023-03-21T11:08:40.955Z,11.33
2023-03-21T11:11:12.363Z,11.36
2023-03-21T11:13:42.864Z,11.44
2023-03-21T11:16:12.792Z,11.46
2023-03-21T11:18:43.419Z,11.51
2023-03-21T11:21:13.504Z,11.53
2023-03-21T11:23:47.887Z,11.55
2023-03-21T11:26:23.989Z,11.44
2023-03-21T11:28:53.720Z,11.27
2023-03-21T11:31:24.847Z,11.20
2023-03-21T11:33:55.419Z,11.21
2023-03-21T11:36:34.772Z,11.31
2023-03-21T11:39:25.679Z,11.38
2023-03-21T11:41:53.742Z,11.39
2023-03-21T11:44:28.653Z,11.31
2023-03-21T11:46:56.409Z,11.20
2023-03-21T11:49:26.234Z,11.26
2023-03-21T11:52:05.841Z,11.19
2023-03-21T11:54:44.580Z,11.25
2023-03-21T11:57:25.265Z,11.18
2023-03-21T12:00:01.459Z,11.11
2023-03-21T12:03:10.454Z,11.11
2023-03-21T12:05:43.583Z,11.21
2023-03-21T12:08:26.468Z,11.21
2023-03-21T12:11:03.548Z,11.09
2023-03-21T12:13:41.734Z,11.07
2023-03-21T12:16:22.616Z,11.09
2023-03-21T12:19:02.984Z,11.16
2023-03-21T12:21:39.896Z,10.96
2023-03-21T12:24:12.329Z,11.01
2023-03-21T12:26:48.247Z,11.05
2023-03-21T12:29:30.772Z,11.15
2023-03-21T12:32:11.160Z,11.19
2023-03-21T12:35:10.287Z,11.09
2023-03-21T12:37:53.839Z,11.20
2023-03-21T12:40:35.037Z,11.21
2023-03-21T12:43:21.836Z,11.22
2023-03-21T12:45:53.197Z,11.24
2023-03-21T12:48:27.592Z,11.33
2023-03-21T12:50:58.706Z,11.26
2023-03-21T12:53:40.492Z,11.27
2023-03-21T12:56:11.288Z,11.29
2023-03-21T12:58:49.043Z,11.27
2023-03-21T13:01:18.946Z,11.23
2023-03-21T13:03:51.461Z,11.38
2023-03-21T13:06:23.139Z,11.41
2023-03-21T13:08:56.484Z,11.29
2023-03-21T13:11:28.313Z,11.29
2023-03-21T13:14:03.771Z,11.30
2023-03-21T13:16:37.075Z,11.23
2023-03-21T13:19:16.777Z,11.31
2023-03-21T13:21:51.701Z,11.41
2023-03-21T13:24:25.923Z,11.48
2023-03-21T13:27:02.427Z,11.49
2023-03-21T13:29:33.602Z,11.55
2023-03-21T13:32:10.404Z,11.52
2023-03-21T13:34:41.489Z,11.52
2023-03-21T13:37:16.746Z,11.44
2023-03-21T13:39:46.866Z,11.47
2023-03-21T13:42:23.423Z,11.42
2023-03-21T13:44:59.001Z,11.42
2023-03-21T13:47:36.986Z,11.38
2023-03-21T13:50:31.055Z,11.32
2023-03-21T13:53:23.693Z,11.34
2023-03-21T13:56:09.395Z,11.24
2023-03-21T13:58:41.402Z,11.25
2023-03-21T14:01:23.527Z,11.23
2023-03-21T14:03:58.937Z,11.20
2023-03-21T14:06:34.811Z,11.18
2023-03-21T14:09:04.799Z,11.24
2023-03-21T14:11:36.743Z,11.23
2023-03-21T14:14:05.268Z,11.25
2023-03-21T14:16:34.812Z,11.33
2023-03-21T14:19:04.950Z,11.36
2023-03-21T14:21:35.597Z,11.39
2023-03-21T14:24:05.686Z,11.40
2023-03-21T14:26:35.631Z,11.42
2023-03-21T14:29:09.619Z,11.28
2023-03-21T14:31:48.949Z,11.26
2023-03-21T14:34:17.859Z,11.23
2023-03-21T14:36:55.386Z,11.19
2023-03-21T14:39:29.305Z,11.18
2023-03-21T14:42:01.841Z,11.19
2023-03-21T14:44:44.200Z,11.22
2023-03-21T14:47:24.406Z,11.15
2023-03-21T14:49:52.713Z,11.25
2023-03-21T14:52:25.436Z,11.36
2023-03-21T14:54:54.286Z,11.47
2023-03-21T14:57:24.895Z,11.44
2023-03-21T14:59:55.442Z,11.34
2023-03-21T15:02:29.318Z,11.39
2023-03-21T15:05:00.531Z,11.46
2023-03-21T15:07:32.257Z,11.54
2023-03-21T15:10:03.647Z,11.58
2023-03-21T15:12:32.415Z,11.57
2023-03-21T15:15:01.356Z,11.56
2023-03-21T15:17:31.086Z,11.57
2023-03-21T15:19:58.768Z,11.58
2023-03-21T15:22:34.030Z,11.63
2023-03-21T15:25:05.639Z,11.56
2023-03-21T15:27:38.309Z,11.61
2023-03-21T15:30:23.637Z,11.54
2023-03-21T15:32:55.471Z,11.55
2023-03-21T15:35:29.401Z,11.55
2023-03-21T15:38:00.116Z,11.53
2023-03-21T15:40:30.468Z,11.57
2023-03-21T15:43:14.302Z,11.56
2023-03-21T15:45:48.975Z,11.58
2023-03-21T15:48:22.142Z,11.63
2023-03-21T15:50:57.650Z,11.63
2023-03-21T15:53:25.830Z,11.55
2023-03-21T15:55:57.249Z,11.59
2023-03-21T15:58:26.836Z,11.60
2023-03-21T16:00:56.368Z,11.64
2023-03-21T16:06:25.602Z,11.57
2023-03-21T16:08:55.019Z,11.60
2023-03-21T16:11:27.929Z,11.60
2023-03-21T16:13:57.486Z,11.62
2023-03-21T16:16:27.077Z,11.65
2023-03-21T16:18:57.968Z,11.62
2023-03-21T16:21:28.486Z,11.57
2023-03-21T16:23:58.129Z,11.58
2023-03-21T16:26:28.373Z,11.51
2023-03-21T16:29:00.260Z,11.54
2023-03-21T16:31:30.288Z,11.63
2023-03-21T16:34:04.599Z,11.67
2023-03-21T16:36:36.456Z,11.71
2023-03-21T16:39:15.925Z,11.76
2023-03-21T16:41:43.746Z,11.84
2023-03-21T16:44:11.793Z,11.88
2023-03-21T16:46:39.607Z,11.92
2023-03-21T16:49:24.768Z,11.96
2023-03-21T16:51:53.532Z,11.97
2023-03-21T16:54:21.353Z,11.92
2023-03-21T16:56:51.469Z,11.80
2023-03-21T16:59:19.609Z,11.74
2023-03-21T17:01:48.518Z,11.65
2023-03-21T17:04:19.375Z,11.68
2023-03-21T17:06:49.419Z,11.71
2023-03-21T17:09:19.124Z,11.68
2023-03-21T17:11:46.759Z,11.61
2023-03-21T17:14:16.810Z,11.70
2023-03-21T17:16:45.214Z,11.76
2023-03-21T17:19:15.291Z,11.77
2023-03-21T17:21:44.758Z,11.80
2023-03-21T17:24:12.498Z,11.79
2023-03-21T17:26:40.822Z,11.86
2023-03-21T17:29:08.780Z,11.78
2023-03-21T17:31:38.353Z,11.70
2023-03-21T17:34:07.229Z,11.59
2023-03-21T17:36:37.871Z,11.56
2023-03-21T17:39:09.570Z,11.54
2023-03-21T17:41:37.233Z,11.54
2023-03-21T17:44:05.314Z,11.52
2023-03-21T17:46:36.957Z,11.58
2023-03-21T17:49:06.857Z,11.59
2023-03-21T17:51:34.559Z,11.58
2023-03-21T17:54:02.314Z,11.57
2023-03-21T17:56:33.346Z,11.57
2023-03-21T17:59:03.863Z,11.59
2023-03-21T18:01:32.861Z,11.58
2023-03-21T18:04:03.002Z,11.46
2023-03-21T18:06:30.750Z,11.28
2023-03-21T18:09:01.169Z,11.30
2023-03-21T18:11:29.385Z,11.36
2023-03-21T18:14:13.856Z,11.22
2023-03-21T18:16:44.383Z,11.22
2023-03-21T18:19:13.502Z,11.28
2023-03-21T18:21:44.789Z,11.32
2023-03-21T18:24:13.555Z,11.34
2023-03-21T18:26:41.746Z,11.33
2023-03-21T18:32:08.948Z,11.33
2023-03-21T18:34:39.322Z,11.25
2023-03-21T18:37:08.409Z,11.25
2023-03-21T18:39:36.700Z,11.22
2023-03-21T18:42:06.227Z,11.23
2023-03-21T18:44:39.841Z,11.31
2023-03-21T18:47:08.534Z,11.32
2023-03-21T18:52:26.306Z,11.17
2023-03-21T18:54:58.282Z,11.12
2023-03-21T18:57:41.944Z,11.07
2023-03-21T19:00:13.911Z,11.03
2023-03-21T19:02:46.878Z,11.08
2023-03-21T19:05:17.131Z,11.17
2023-03-21T19:07:45.829Z,11.19
2023-03-21T19:10:19.427Z,11.17
2023-03-21T19:12:48.126Z,11.15
2023-03-21T19:15:19.819Z,11.15
2023-03-21T19:20:36.833Z,11.06
2023-03-21T19:23:06.053Z,11.03
2023-03-21T19:25:34.033Z,11.08
2023-03-21T19:28:02.405Z,11.12
2023-03-21T19:30:31.947Z,11.16
2023-03-21T19:33:02.269Z,11.17
2023-03-21T19:35:30.130Z,11.16
2023-03-21T19:37:57.982Z,11.11
2023-03-21T19:40:25.913Z,11.15
2023-03-21T19:42:53.596Z,11.20
2023-03-21T19:45:21.625Z,11.21
2023-03-21T19:47:50.899Z,11.25
2023-03-21T19:53:07.380Z,11.24
2023-03-21T19:55:36.348Z,11.27
2023-03-21T19:58:04.355Z,11.26
2023-03-21T20:00:32.204Z,11.24
2023-03-21T20:03:02.734Z,11.21
2023-03-21T20:05:30.842Z,11.16
2023-03-21T20:07:58.734Z,11.21
2023-03-21T20:10:27.554Z,11.20
2023-03-21T20:12:58.292Z,11.21
2023-03-21T20:15:28.398Z,11.16
2023-03-21T20:17:57.895Z,11.07
2023-03-21T20:20:27.026Z,11.04
2023-03-21T20:23:11.634Z,11.03
2023-03-21T20:25:43.749Z,11.09
2023-03-21T20:28:28.609Z,11.07
2023-03-21T20:30:58.645Z,11.04
2023-03-21T20:33:26.569Z,11.05
2023-03-21T20:38:51.346Z,11.10
2023-03-21T20:41:19.334Z,11.09
2023-03-21T20:44:28.481Z,11.02
2023-03-21T20:46:37.115Z,11.04
2023-03-21T20:49:07.296Z,10.91
2023-03-21T20:54:24.011Z,10.97
2023-03-21T20:56:51.736Z,10.96
2023-03-21T20:59:26.422Z,10.94
2023-03-21T21:01:57.163Z,10.93
2023-03-21T21:04:44.135Z,10.91
2023-03-21T21:07:16.327Z,10.93
2023-03-21T21:09:44.776Z,10.95
2023-03-21T21:12:14.377Z,10.97
2023-03-21T21:14:42.819Z,10.96
2023-03-21T21:17:30.794Z,10.95
2023-03-21T21:20:01.980Z,10.96
2023-03-21T21:22:31.567Z,10.96
2023-03-21T21:24:59.358Z,10.98
2023-03-21T21:27:26.928Z,10.98
2023-03-21T21:29:54.517Z,11.00
2023-03-21T21:32:22.268Z,10.93
2023-03-21T21:34:50.276Z,10.93
2023-03-21T21:37:17.934Z,10.96
2023-03-21T21:39:46.962Z,10.95
2023-03-21T21:42:14.820Z,10.85
2023-03-21T21:44:44.890Z,10.88
2023-03-21T21:47:12.977Z,10.82
2023-03-21T21:49:41.165Z,10.76
2023-03-21T21:52:13.278Z,10.76
2023-03-21T21:54:45.360Z,10.82
2023-03-21T21:57:14.857Z,10.87
2023-03-21T21:59:42.565Z,10.90
2023-03-21T22:02:13.748Z,10.79
2023-03-21T22:04:41.635Z,10.76
2023-03-21T22:07:14.183Z,10.83
2023-03-21T22:09:42.380Z,10.79
2023-03-21T22:12:10.502Z,10.72
2023-03-21T22:14:39.499Z,10.74
2023-03-21T22:17:07.159Z,10.76
2023-03-21T22:19:34.802Z,10.72
2023-03-21T22:22:02.540Z,10.66
2023-03-21T22:24:30.281Z,10.69
2023-03-21T22:26:58.680Z,10.70
2023-03-21T22:29:26.753Z,10.74
2023-03-21T22:31:56.031Z,10.77
2023-03-21T22:34:25.982Z,10.80
2023-03-21T22:36:56.904Z,10.80
2023-03-21T22:39:26.299Z,10.71
2023-03-21T22:41:54.648Z,10.74
2023-03-21T22:44:23.629Z,10.74
2023-03-21T22:46:51.263Z,10.72
2023-03-21T22:49:20.342Z,10.73
2023-03-21T22:51:48.068Z,10.73
2023-03-21T22:54:15.868Z,10.78
2023-03-21T22:56:43.612Z,10.77
2023-03-21T22:59:11.326Z,10.78
2023-03-21T23:01:40.037Z,10.80
2023-03-21T23:04:07.929Z,10.82
2023-03-21T23:06:37.587Z,10.80
2023-03-21T23:09:05.504Z,10.75
2023-03-21T23:11:33.320Z,10.72
2023-03-21T23:14:07.594Z,10.69
2023-03-21T23:16:38.234Z,10.63
2023-03-21T23:19:07.653Z,10.62
2023-03-21T23:21:38.192Z,10.57
2023-03-21T23:24:06.978Z,10.61
2023-03-21T23:26:35.842Z,10.61
2023-03-21T23:29:03.999Z,10.61
2023-03-21T23:31:32.864Z,10.64
2023-03-21T23:34:01.084Z,10.66
2023-03-21T23:36:29.083Z,10.62
2023-03-21T23:38:58.116Z,10.65
2023-03-21T23:41:26.504Z,10.65
2023-03-21T23:43:54.273Z,10.67
2023-03-21T23:46:22.249Z,10.63
2023-03-21T23:48:50.598Z,10.64
2023-03-21T23:51:18.854Z,10.66
2023-03-21T23:53:47.343Z,10.69
2023-03-21T23:56:18.593Z,10.67
2023-03-21T23:58:47.208Z,10.66
